createdAt,value
2018-09-08T00:00:43.092Z,-75
2018-09-08T00:01:43.003Z,-75
2018-09-08T00:02:43.094Z,-75
2018-09-08T00:03:42.977Z,-75
2018-09-08T00:04:43.104Z,-75
2018-09-08T00:05:45.737Z,-75
2018-09-08T00:06:43.130Z,-75
2018-09-08T00:07:42.981Z,-75
2018-09-08T00:08:43.097Z,-75
2018-09-08T00:09:42.983Z,-75
2018-09-08T00:10:43.102Z,-75
2018-09-08T00:11:43.067Z,-75
2018-09-08T00:12:43.105Z,-75
2018-09-08T00:13:42.988Z,-75
2018-09-08T00:14:43.104Z,-75
2018-09-08T00:15:42.989Z,-75
2018-09-08T00:16:43.134Z,-75
2018-09-08T00:17:42.992Z,-75
2018-09-08T00:18:43.109Z,-75
2018-09-08T00:19:42.994Z,-75
2018-09-08T00:20:43.108Z,-75
2018-09-08T00:21:43.020Z,-75
2018-09-08T00:22:43.110Z,-75
2018-09-08T00:23:42.995Z,-76
2018-09-08T00:24:43.113Z,-75
2018-09-08T00:26:43.142Z,-75
2018-09-08T00:27:43.001Z,-75
2018-09-08T00:28:43.122Z,-75
2018-09-08T00:29:43.003Z,-75
2018-09-08T00:30:43.122Z,-75
2018-09-08T00:31:43.032Z,-75
2018-09-08T00:32:43.121Z,-75
2018-09-08T00:33:43.007Z,-75
2018-09-08T00:34:43.128Z,-75
2018-09-08T00:35:43.009Z,-75
2018-09-08T00:36:43.154Z,-75
2018-09-08T00:37:43.011Z,-76
2018-09-08T00:38:43.135Z,-75
2018-09-08T00:39:43.011Z,-75
2018-09-08T00:40:43.130Z,-75
2018-09-08T00:41:43.037Z,-75
2018-09-08T00:42:44.202Z,-75
2018-09-08T00:43:43.016Z,-78
2018-09-08T00:44:43.130Z,-78
2018-09-08T00:45:43.081Z,-78
2018-09-08T00:46:43.161Z,-78
2018-09-08T00:47:43.019Z,-78
2018-09-08T00:48:43.136Z,-78
2018-09-08T00:49:43.025Z,-78
2018-09-08T00:50:43.140Z,-78
2018-09-08T00:51:43.021Z,-78
2018-09-08T00:52:43.168Z,-78
2018-09-08T00:53:43.025Z,-78
2018-09-08T00:54:43.144Z,-78
2018-09-08T00:55:43.024Z,-78
2018-09-08T00:56:43.238Z,-78
2018-09-08T00:57:43.052Z,-78
2018-09-08T00:58:43.146Z,-78
2018-09-08T00:59:43.029Z,-78
2018-09-08T01:00:43.152Z,-78
2018-09-08T01:01:43.033Z,-78
2018-09-08T01:02:43.175Z,-78
2018-09-08T01:03:43.048Z,-78
2018-09-08T01:04:43.154Z,-78
2018-09-08T01:05:43.032Z,-78
2018-09-08T01:06:43.152Z,-78
2018-09-08T01:07:43.059Z,-78
2018-09-08T01:08:43.157Z,-78
2018-09-08T01:09:43.038Z,-78
2018-09-08T01:10:43.158Z,-78
2018-09-08T01:11:43.072Z,-78
2018-09-08T01:12:43.184Z,-78
2018-09-08T01:13:43.042Z,-78
2018-09-08T01:14:43.164Z,-78
2018-09-08T01:15:43.043Z,-78
2018-09-08T01:16:43.161Z,-78
2018-09-08T01:17:43.070Z,-78
2018-09-08T01:18:43.162Z,-78
2018-09-08T01:19:43.135Z,-78
2018-09-08T01:20:43.199Z,-78
2018-09-08T01:21:43.048Z,-78
2018-09-08T01:22:43.197Z,-78
2018-09-08T01:23:43.050Z,-78
2018-09-08T01:24:43.173Z,-78
2018-09-08T01:25:43.051Z,-78
2018-09-08T01:26:43.169Z,-78
2018-09-08T01:27:43.080Z,-78
2018-09-08T01:28:43.182Z,-78
2018-09-08T01:29:43.058Z,-78
2018-09-08T01:30:43.184Z,-78
2018-09-08T01:31:43.057Z,-78
2018-09-08T01:32:43.201Z,-78
2018-09-08T01:33:43.073Z,-79
2018-09-08T01:34:43.177Z,-79
2018-09-08T01:35:43.059Z,-79
2018-09-08T01:36:43.180Z,-79
2018-09-08T01:37:43.091Z,-79
2018-09-08T01:38:43.180Z,-79
2018-09-08T01:39:43.068Z,-78
2018-09-08T01:40:43.190Z,-78
2018-09-08T01:41:43.084Z,-79
2018-09-08T01:42:43.235Z,-79
2018-09-08T01:43:43.067Z,-79
2018-09-08T01:44:43.188Z,-79
2018-09-08T01:45:43.071Z,-78
2018-09-08T01:46:43.189Z,-79
2018-09-08T01:47:43.096Z,-79
2018-09-08T01:48:43.191Z,-79
2018-09-08T01:49:43.074Z,-78
2018-09-08T01:50:43.193Z,-78
2018-09-08T01:51:43.085Z,-78
2018-09-08T01:52:43.195Z,-78
2018-09-08T01:53:43.104Z,-78
2018-09-08T01:54:43.194Z,-78
2018-09-08T01:55:43.079Z,-78
2018-09-08T01:56:43.198Z,-78
2018-09-08T01:57:43.080Z,-78
2018-09-08T01:58:43.228Z,-78
2018-09-08T01:59:43.083Z,-78
2018-09-08T02:00:43.200Z,-78
2018-09-08T02:01:43.083Z,-78
2018-09-08T02:02:43.211Z,-78
2018-09-08T02:03:43.109Z,-78
2018-09-08T02:04:43.207Z,-78
2018-09-08T02:05:44.194Z,-78
2018-09-08T02:06:43.206Z,-78
2018-09-08T02:07:43.090Z,-78
2018-09-08T02:08:43.234Z,-77
2018-09-08T02:09:43.092Z,-78
2018-09-08T02:10:43.212Z,-78
2018-09-08T02:11:43.093Z,-78
2018-09-08T02:12:43.213Z,-78
2018-09-08T02:13:43.117Z,-78
2018-09-08T02:14:43.220Z,-78
2018-09-08T02:15:43.095Z,-78
2018-09-08T02:16:43.219Z,-78
2018-09-08T02:17:43.098Z,-78
2018-09-08T02:18:43.244Z,-79
2018-09-08T02:19:43.098Z,-79
2018-09-08T02:20:43.218Z,-78
2018-09-08T02:21:43.101Z,-79
2018-09-08T02:22:43.223Z,-78
2018-09-08T02:23:43.129Z,-78
2018-09-08T02:24:43.225Z,-78
2018-09-08T02:25:43.104Z,-79
2018-09-08T02:26:43.223Z,-78
2018-09-08T02:27:43.107Z,-78
2018-09-08T02:28:43.246Z,-79
2018-09-08T02:29:43.107Z,-78
2018-09-08T02:30:43.228Z,-78
2018-09-08T02:31:43.109Z,-78
2018-09-08T02:32:43.242Z,-76
2018-09-08T02:33:43.137Z,-77
2018-09-08T02:34:43.237Z,-77
2018-09-08T02:35:43.113Z,-80
2018-09-08T02:36:43.242Z,-80
2018-09-08T02:37:43.115Z,-80
2018-09-08T02:38:43.257Z,-79
2018-09-08T02:39:43.119Z,-80
2018-09-08T02:40:43.242Z,-80
2018-09-08T02:41:43.119Z,-77
2018-09-08T02:42:43.245Z,-77
2018-09-08T02:43:43.146Z,-77
2018-09-08T02:44:43.245Z,-77
2018-09-08T02:45:43.123Z,-77
2018-09-08T02:46:43.246Z,-77
2018-09-08T02:47:43.126Z,-77
2018-09-08T02:48:44.485Z,-77
2018-09-08T02:49:43.125Z,-77
2018-09-08T02:50:43.260Z,-77
2018-09-08T02:51:43.131Z,-78
2018-09-08T02:52:43.246Z,-77
2018-09-08T02:53:43.158Z,-77
2018-09-08T02:54:43.275Z,-79
2018-09-08T02:55:43.138Z,-78
2018-09-08T02:56:43.251Z,-76
2018-09-08T02:57:43.136Z,-80
2018-09-08T02:58:43.283Z,-78
2018-09-08T02:59:43.140Z,-79
2018-09-08T03:00:43.287Z,-78
2018-09-08T03:01:43.137Z,-78
2018-09-08T03:02:43.253Z,-78
2018-09-08T03:03:43.163Z,-78
2018-09-08T03:04:43.256Z,-78
2018-09-08T03:05:43.144Z,-78
2018-09-08T03:06:43.258Z,-77
2018-09-08T03:07:43.143Z,-77
2018-09-08T03:08:43.286Z,-77
2018-09-08T03:09:43.145Z,-77
2018-09-08T03:10:43.263Z,-77
2018-09-08T03:11:43.148Z,-77
2018-09-08T03:12:43.264Z,-77
2018-09-08T03:13:43.171Z,-77
2018-09-08T03:14:43.268Z,-77
2018-09-08T03:15:43.149Z,-77
2018-09-08T03:16:43.268Z,-77
2018-09-08T03:17:43.149Z,-77
2018-09-08T03:18:43.294Z,-79
2018-09-08T03:19:43.153Z,-79
2018-09-08T03:20:43.274Z,-79
2018-09-08T03:21:43.154Z,-79
2018-09-08T03:22:43.273Z,-79
2018-09-08T03:23:43.197Z,-79
2018-09-08T03:24:43.275Z,-79
2018-09-08T03:25:43.156Z,-78
2018-09-08T03:26:43.277Z,-79
2018-09-08T03:27:43.157Z,-79
2018-09-08T03:28:43.275Z,-79
2018-09-08T03:29:43.186Z,-79
2018-09-08T03:30:43.287Z,-79
2018-09-08T03:31:43.162Z,-80
2018-09-08T03:32:43.285Z,-80
2018-09-08T03:33:43.163Z,-80
2018-09-08T03:34:43.313Z,-78
2018-09-08T03:35:43.168Z,-77
2018-09-08T03:36:43.288Z,-77
2018-09-08T03:37:43.168Z,-77
2018-09-08T03:38:43.292Z,-76
2018-09-08T03:39:43.193Z,-75
2018-09-08T03:40:43.286Z,-74
2018-09-08T03:41:43.170Z,-74
2018-09-08T03:42:43.292Z,-74
2018-09-08T03:43:43.175Z,-75
2018-09-08T03:44:43.316Z,-74
2018-09-08T03:45:43.173Z,-75
2018-09-08T03:46:43.301Z,-76
2018-09-08T03:47:43.178Z,-76
2018-09-08T03:48:43.300Z,-76
2018-09-08T03:49:43.203Z,-76
2018-09-08T03:50:43.300Z,-76
2018-09-08T03:51:43.178Z,-76
2018-09-08T03:52:43.304Z,-76
2018-09-08T03:53:43.180Z,-77
2018-09-08T03:54:43.325Z,-76
2018-09-08T03:55:43.187Z,-76
2018-09-08T03:56:43.304Z,-77
2018-09-08T03:57:43.183Z,-77
2018-09-08T03:58:43.308Z,-77
2018-09-08T03:59:43.212Z,-76
2018-09-08T04:00:43.357Z,-76
2018-09-08T04:01:43.197Z,-76
2018-09-08T04:02:43.316Z,-76
2018-09-08T04:03:43.190Z,-76
2018-09-08T04:04:43.336Z,-76
2018-09-08T04:05:43.301Z,-77
2018-09-08T04:06:43.311Z,-77
2018-09-08T04:07:43.194Z,-77
2018-09-08T04:08:43.315Z,-77
2018-09-08T04:09:43.222Z,-77
2018-09-08T04:10:43.318Z,-77
2018-09-08T04:11:43.196Z,-77
2018-09-08T04:12:43.396Z,-77
2018-09-08T04:13:43.198Z,-77
2018-09-08T04:14:43.354Z,-77
2018-09-08T04:15:43.200Z,-77
2018-09-08T04:16:43.323Z,-77
2018-09-08T04:17:43.201Z,-78
2018-09-08T04:18:43.324Z,-77
2018-09-08T04:19:43.230Z,-77
2018-09-08T04:20:43.321Z,-77
2018-09-08T04:21:43.206Z,-77
2018-09-08T04:22:43.327Z,-79
2018-09-08T04:23:43.206Z,-79
2018-09-08T04:24:43.359Z,-79
2018-09-08T04:25:43.209Z,-79
2018-09-08T04:26:43.332Z,-79
2018-09-08T04:27:43.210Z,-81
2018-09-08T04:28:46.304Z,-79
2018-09-08T04:29:43.237Z,-79
2018-09-08T04:30:43.332Z,-79
2018-09-08T04:31:43.220Z,-79
2018-09-08T04:32:43.333Z,-79
2018-09-08T04:33:43.217Z,-78
2018-09-08T04:34:43.367Z,-77
2018-09-08T04:35:43.217Z,-78
2018-09-08T04:36:43.339Z,-78
2018-09-08T04:37:43.220Z,-78
2018-09-08T04:38:43.339Z,-78
2018-09-08T04:39:43.245Z,-78
2018-09-08T04:40:43.341Z,-78
2018-09-08T04:41:43.221Z,-77
2018-09-08T04:42:43.345Z,-77
2018-09-08T04:43:43.226Z,-77
2018-09-08T04:44:43.416Z,-78
2018-09-08T04:45:43.229Z,-77
2018-09-08T04:46:43.343Z,-77
2018-09-08T04:47:43.228Z,-77
2018-09-08T04:48:43.348Z,-78
2018-09-08T04:49:43.266Z,-78
2018-09-08T04:50:43.348Z,-78
2018-09-08T04:51:43.230Z,-78
2018-09-08T04:52:43.356Z,-78
2018-09-08T04:53:43.233Z,-78
2018-09-08T04:54:43.351Z,-78
2018-09-08T04:55:43.261Z,-78
2018-09-08T04:56:43.355Z,-78
2018-09-08T04:57:44.259Z,-78
2018-09-08T04:58:43.360Z,-78
2018-09-08T04:59:43.238Z,-77
2018-09-08T05:00:43.380Z,-77
2018-09-08T05:01:43.241Z,-77
2018-09-08T05:02:43.358Z,-77
2018-09-08T05:03:43.243Z,-77
2018-09-08T05:04:43.361Z,-76
2018-09-08T05:05:43.268Z,-76
2018-09-08T05:06:43.370Z,-76
2018-09-08T05:07:43.246Z,-75
2018-09-08T05:08:43.363Z,-75
2018-09-08T05:09:43.247Z,-76
2018-09-08T05:10:43.390Z,-75
2018-09-08T05:11:43.252Z,-75
2018-09-08T05:12:43.375Z,-76
2018-09-08T05:13:43.252Z,-76
2018-09-08T05:14:43.373Z,-76
2018-09-08T05:15:43.277Z,-75
2018-09-08T05:16:43.379Z,-75
2018-09-08T05:17:43.255Z,-75
2018-09-08T05:18:43.372Z,-76
2018-09-08T05:19:43.258Z,-76
2018-09-08T05:20:43.401Z,-75
2018-09-08T05:21:43.258Z,-77
2018-09-08T05:22:43.375Z,-76
2018-09-08T05:23:43.262Z,-76
2018-09-08T05:24:43.382Z,-75
2018-09-08T05:25:43.286Z,-76
2018-09-08T05:26:43.379Z,-76
2018-09-08T05:27:43.262Z,-75
2018-09-08T05:28:43.657Z,-76
2018-09-08T05:29:43.264Z,-75
2018-09-08T05:30:43.409Z,-75
2018-09-08T05:31:43.268Z,-75
2018-09-08T05:32:43.385Z,-75
2018-09-08T05:33:43.268Z,-75
2018-09-08T05:34:43.389Z,-75
2018-09-08T05:35:43.297Z,-78
2018-09-08T05:36:43.387Z,-77
2018-09-08T05:37:43.273Z,-77
2018-09-08T05:38:43.391Z,-78
2018-09-08T05:39:43.275Z,-78
2018-09-08T05:40:44.715Z,-78
2018-09-08T05:41:43.276Z,-78
2018-09-08T05:42:43.397Z,-77
2018-09-08T05:43:43.276Z,-78
2018-09-08T05:44:43.398Z,-77
2018-09-08T05:45:43.329Z,-77
2018-09-08T05:46:43.397Z,-78
2018-09-08T05:47:43.281Z,-78
2018-09-08T05:48:43.472Z,-78
2018-09-08T05:49:43.478Z,-77
2018-09-08T05:50:43.403Z,-77
2018-09-08T05:51:43.307Z,-76
2018-09-08T05:52:43.404Z,-77
2018-09-08T05:53:43.285Z,-77
2018-09-08T05:54:43.447Z,-76
2018-09-08T05:55:43.287Z,-77
2018-09-08T05:56:43.436Z,-76
2018-09-08T05:57:43.292Z,-76
2018-09-08T05:58:43.411Z,-76
2018-09-08T05:59:43.295Z,-76
2018-09-08T06:00:43.413Z,-76
2018-09-08T06:01:43.318Z,-76
2018-09-08T06:02:43.474Z,-76
2018-09-08T06:03:43.300Z,-75
2018-09-08T06:04:43.413Z,-76
2018-09-08T06:05:43.296Z,-77
2018-09-08T06:06:43.442Z,-76
2018-09-08T06:07:43.297Z,-77
2018-09-08T06:08:43.415Z,-76
2018-09-08T06:09:43.299Z,-76
2018-09-08T06:10:43.421Z,-77
2018-09-08T06:11:43.325Z,-76
2018-09-08T06:12:43.421Z,-77
2018-09-08T06:13:43.305Z,-77
2018-09-08T06:14:43.421Z,-77
2018-09-08T06:15:43.309Z,-77
2018-09-08T06:16:43.449Z,-77
2018-09-08T06:17:43.308Z,-78
2018-09-08T06:18:43.430Z,-78
2018-09-08T06:19:43.372Z,-78
2018-09-08T06:20:43.427Z,-78
2018-09-08T06:21:43.334Z,-78
2018-09-08T06:22:43.433Z,-78
2018-09-08T06:23:43.314Z,-78
2018-09-08T06:24:43.435Z,-78
2018-09-08T06:25:43.313Z,-77
2018-09-08T06:26:43.458Z,-77
2018-09-08T06:27:43.339Z,-78
2018-09-08T06:28:43.838Z,-79
2018-09-08T06:29:43.319Z,-78
2018-09-08T06:30:43.436Z,-78
2018-09-08T06:31:43.352Z,-78
2018-09-08T06:32:43.443Z,-78
2018-09-08T06:33:43.364Z,-78
2018-09-08T06:34:43.438Z,-78
2018-09-08T06:35:43.324Z,-78
2018-09-08T06:36:43.475Z,-78
2018-09-08T06:37:43.324Z,-78
2018-09-08T06:38:43.449Z,-79
2018-09-08T06:39:43.325Z,-78
2018-09-08T06:40:43.447Z,-79
2018-09-08T06:41:43.353Z,-78
2018-09-08T06:42:43.449Z,-79
2018-09-08T06:43:43.331Z,-77
2018-09-08T06:44:43.537Z,-77
2018-09-08T06:45:43.331Z,-77
2018-09-08T06:46:43.510Z,-77
2018-09-08T06:47:43.338Z,-77
2018-09-08T06:48:43.451Z,-77
2018-09-08T06:49:43.335Z,-77
2018-09-08T06:50:43.455Z,-77
2018-09-08T06:51:43.343Z,-77
2018-09-08T06:52:43.485Z,-78
2018-09-08T06:53:43.339Z,-76
2018-09-08T06:54:43.462Z,-76
2018-09-08T06:55:43.342Z,-76
2018-09-08T06:56:43.470Z,-76
2018-09-08T06:57:43.377Z,-77
2018-09-08T06:58:43.461Z,-77
2018-09-08T06:59:43.346Z,-77
2018-09-08T07:00:43.465Z,-77
2018-09-08T07:01:43.345Z,-77
2018-09-08T07:02:43.488Z,-77
2018-09-08T07:03:43.347Z,-78
2018-09-08T07:04:43.465Z,-78
2018-09-08T07:05:43.349Z,-78
2018-09-08T07:06:43.468Z,-78
2018-09-08T07:07:43.375Z,-79
2018-09-08T07:08:43.479Z,-79
2018-09-08T07:09:43.351Z,-78
2018-09-08T07:10:43.470Z,-78
2018-09-08T07:11:43.352Z,-74
2018-09-08T07:12:43.493Z,-76
2018-09-08T07:13:43.353Z,-77
2018-09-08T07:14:43.476Z,-76
2018-09-08T07:15:43.358Z,-76
2018-09-08T07:16:43.476Z,-76
2018-09-08T07:17:43.397Z,-76
2018-09-08T07:18:43.478Z,-76
2018-09-08T07:19:43.360Z,-75
2018-09-08T07:20:43.477Z,-76
2018-09-08T07:21:43.361Z,-75
2018-09-08T07:22:43.504Z,-76
2018-09-08T07:23:43.365Z,-75
2018-09-08T07:24:43.522Z,-75
2018-09-08T07:25:43.365Z,-76
2018-09-08T07:26:43.486Z,-76
2018-09-08T07:27:43.392Z,-76
2018-09-08T07:28:43.489Z,-76
2018-09-08T07:29:43.372Z,-76
2018-09-08T07:30:43.490Z,-76
2018-09-08T07:31:43.373Z,-76
2018-09-08T07:32:43.517Z,-75
2018-09-08T07:33:43.374Z,-76
2018-09-08T07:34:43.504Z,-76
2018-09-08T07:35:43.414Z,-76
2018-09-08T07:36:43.532Z,-76
2018-09-08T07:37:43.403Z,-76
2018-09-08T07:38:43.503Z,-76
2018-09-08T07:39:43.385Z,-77
2018-09-08T07:40:43.501Z,-76
2018-09-08T07:41:43.381Z,-76
2018-09-08T07:42:43.529Z,-76
2018-09-08T07:43:43.383Z,-76
2018-09-08T07:44:43.503Z,-76
2018-09-08T07:45:43.385Z,-76
2018-09-08T07:46:43.508Z,-76
2018-09-08T07:47:43.414Z,-76
2018-09-08T07:48:43.511Z,-76
2018-09-08T07:49:43.397Z,-76
2018-09-08T07:50:43.511Z,-76
2018-09-08T07:51:43.393Z,-76
2018-09-08T07:52:43.538Z,-76
2018-09-08T07:53:43.409Z,-76
2018-09-08T07:54:43.510Z,-76
2018-09-08T07:55:43.395Z,-76
2018-09-08T07:56:43.526Z,-76
2018-09-08T07:57:44.535Z,-76
2018-09-08T07:58:43.522Z,-76
2018-09-08T07:59:43.396Z,-76
2018-09-08T08:00:43.516Z,-77
2018-09-08T08:01:43.396Z,-76
2018-09-08T08:02:43.516Z,-76
2018-09-08T08:03:43.426Z,-77
2018-09-08T08:04:43.526Z,-77
2018-09-08T08:05:43.402Z,-76
2018-09-08T08:06:43.681Z,-76
2018-09-08T08:07:43.405Z,-76
2018-09-08T08:08:43.549Z,-76
2018-09-08T08:09:43.407Z,-76
2018-09-08T08:10:43.528Z,-76
2018-09-08T08:11:43.408Z,-76
2018-09-08T08:12:43.527Z,-76
2018-09-08T08:13:43.434Z,-77
2018-09-08T08:14:43.528Z,-76
2018-09-08T08:15:43.409Z,-76
2018-09-08T08:16:43.531Z,-76
2018-09-08T08:17:43.412Z,-76
2018-09-08T08:18:43.558Z,-76
2018-09-08T08:19:43.414Z,-76
2018-09-08T08:20:43.537Z,-76
2018-09-08T08:21:43.415Z,-76
2018-09-08T08:22:43.536Z,-76
2018-09-08T08:23:43.442Z,-76
2018-09-08T08:24:43.538Z,-76
2018-09-08T08:25:43.419Z,-76
2018-09-08T08:26:43.592Z,-76
2018-09-08T08:27:43.421Z,-76
2018-09-08T08:28:43.573Z,-76
2018-09-08T08:29:43.424Z,-77
2018-09-08T08:30:43.543Z,-76
2018-09-08T08:31:43.427Z,-76
2018-09-08T08:32:43.548Z,-76
2018-09-08T08:33:43.452Z,-76
2018-09-08T08:34:43.547Z,-75
2018-09-08T08:35:43.428Z,-76
2018-09-08T08:36:43.550Z,-76
2018-09-08T08:37:43.430Z,-76
2018-09-08T08:38:46.437Z,-76
2018-09-08T08:39:43.433Z,-76
2018-09-08T08:40:43.557Z,-76
2018-09-08T08:41:43.436Z,-76
2018-09-08T08:42:43.559Z,-76
2018-09-08T08:43:43.464Z,-76
2018-09-08T08:44:43.555Z,-76
2018-09-08T08:45:43.438Z,-76
2018-09-08T08:46:43.557Z,-76
2018-09-08T08:47:43.442Z,-78
2018-09-08T08:48:43.582Z,-76
2018-09-08T08:49:43.464Z,-76
2018-09-08T08:50:43.566Z,-75
2018-09-08T08:51:43.444Z,-76
2018-09-08T08:52:43.569Z,-76
2018-09-08T08:53:43.470Z,-76
2018-09-08T08:54:43.566Z,-76
2018-09-08T08:55:43.451Z,-76
2018-09-08T08:56:43.571Z,-76
2018-09-08T08:57:43.448Z,-76
2018-09-08T08:58:43.595Z,-76
2018-09-08T08:59:43.450Z,-76
2018-09-08T09:00:43.572Z,-76
2018-09-08T09:01:43.452Z,-76
2018-09-08T09:02:43.581Z,-76
2018-09-08T09:03:43.495Z,-76
2018-09-08T09:04:43.577Z,-76
2018-09-08T09:05:43.458Z,-77
2018-09-08T09:06:43.579Z,-76
2018-09-08T09:07:43.459Z,-76
2018-09-08T09:08:44.749Z,-76
2018-09-08T09:09:43.486Z,-76
2018-09-08T09:10:43.635Z,-76
2018-09-08T09:11:43.464Z,-76
2018-09-08T09:12:43.649Z,-76
2018-09-08T09:13:43.462Z,-76
2018-09-08T09:14:43.607Z,-76
2018-09-08T09:15:43.469Z,-76
2018-09-08T09:16:43.586Z,-76
2018-09-08T09:17:43.468Z,-76
2018-09-08T09:18:44.883Z,-76
2018-09-08T09:19:43.496Z,-76
2018-09-08T09:20:43.588Z,-76
2018-09-08T09:21:43.471Z,-76
2018-09-08T09:22:43.593Z,-76
2018-09-08T09:23:43.476Z,-77
2018-09-08T09:24:44.728Z,-76
2018-09-08T09:25:43.477Z,-76
2018-09-08T09:26:43.597Z,-76
2018-09-08T09:27:43.476Z,-76
2018-09-08T09:28:43.604Z,-76
2018-09-08T09:29:43.505Z,-76
2018-09-08T09:30:43.599Z,-76
2018-09-08T09:31:43.481Z,-76
2018-09-08T09:32:43.602Z,-76
2018-09-08T09:33:43.481Z,-76
2018-09-08T09:34:43.627Z,-76
2018-09-08T09:35:43.485Z,-76
2018-09-08T09:36:43.602Z,-76
2018-09-08T09:37:43.486Z,-76
2018-09-08T09:38:43.607Z,-76
2018-09-08T09:39:43.512Z,-76
2018-09-08T09:40:43.612Z,-76
2018-09-08T09:41:43.494Z,-76
2018-09-08T09:42:43.615Z,-76
2018-09-08T09:43:43.490Z,-76
2018-09-08T09:44:43.639Z,-76
2018-09-08T09:45:43.494Z,-77
2018-09-08T09:46:43.616Z,-76
2018-09-08T09:47:43.496Z,-76
2018-09-08T09:48:43.618Z,-76
2018-09-08T09:49:43.499Z,-76
2018-09-08T09:50:43.655Z,-76
2018-09-08T09:51:43.501Z,-76
2018-09-08T09:52:43.621Z,-76
2018-09-08T09:53:43.502Z,-76
2018-09-08T09:54:43.617Z,-76
2018-09-08T09:55:43.528Z,-76
2018-09-08T09:56:43.638Z,-76
2018-09-08T09:57:43.506Z,-76
2018-09-08T09:58:43.640Z,-76
2018-09-08T09:59:43.507Z,-76
2018-09-08T10:00:43.650Z,-76
2018-09-08T10:01:43.508Z,-76
2018-09-08T10:02:43.629Z,-76
2018-09-08T10:03:43.511Z,-76
2018-09-08T10:04:43.636Z,-76
2018-09-08T10:05:43.539Z,-76
2018-09-08T10:06:43.636Z,-76
2018-09-08T10:07:43.515Z,-76
2018-09-08T10:08:43.636Z,-76
2018-09-08T10:09:43.518Z,-75
2018-09-08T10:10:43.660Z,-76
2018-09-08T10:11:43.517Z,-76
2018-09-08T10:12:43.640Z,-76
2018-09-08T10:13:43.521Z,-76
2018-09-08T10:14:43.637Z,-76
2018-09-08T10:15:43.548Z,-75
2018-09-08T10:16:43.639Z,-76
2018-09-08T10:17:43.524Z,-77
2018-09-08T10:18:43.644Z,-76
2018-09-08T10:19:43.525Z,-76
2018-09-08T10:20:43.671Z,-76
2018-09-08T10:21:43.528Z,-76
2018-09-08T10:22:43.648Z,-76
2018-09-08T10:24:04.342Z,-76
2018-09-08T10:24:43.647Z,-76
2018-09-08T10:25:43.627Z,-76
2018-09-08T10:26:43.658Z,-76
2018-09-08T10:27:43.534Z,-76
2018-09-08T10:28:43.656Z,-76
2018-09-08T10:29:43.534Z,-76
2018-09-08T10:30:43.678Z,-76
2018-09-08T10:31:43.541Z,-76
2018-09-08T10:32:43.657Z,-76
2018-09-08T10:33:43.538Z,-76
2018-09-08T10:34:43.734Z,-76
2018-09-08T10:35:43.582Z,-76
2018-09-08T10:36:43.671Z,-76
2018-09-08T10:37:43.542Z,-76
2018-09-08T10:38:43.663Z,-76
2018-09-08T10:39:43.548Z,-76
2018-09-08T10:40:43.664Z,-76
2018-09-08T10:41:43.571Z,-76
2018-09-08T10:42:43.711Z,-76
2018-09-08T10:43:43.551Z,-76
2018-09-08T10:44:46.695Z,-76
2018-09-08T10:45:43.552Z,-76
2018-09-08T10:46:43.694Z,-76
2018-09-08T10:47:43.551Z,-76
2018-09-08T10:48:43.673Z,-76
2018-09-08T10:49:43.555Z,-77
2018-09-08T10:50:43.674Z,-76
2018-09-08T10:51:43.601Z,-76
2018-09-08T10:52:43.677Z,-76
2018-09-08T10:53:43.558Z,-76
2018-09-08T10:54:43.715Z,-76
2018-09-08T10:55:43.560Z,-76
2018-09-08T10:56:43.709Z,-76
2018-09-08T10:57:43.560Z,-76
2018-09-08T10:58:43.679Z,-76
2018-09-08T10:59:43.564Z,-76
2018-09-08T11:00:43.684Z,-76
2018-09-08T11:01:43.661Z,-76
2018-09-08T11:02:44.662Z,-76
2018-09-08T11:03:43.568Z,-76
2018-09-08T11:04:43.696Z,-76
2018-09-08T11:05:43.570Z,-76
2018-09-08T11:06:43.689Z,-76
2018-09-08T11:07:43.599Z,-76
2018-09-08T11:08:43.687Z,-76
2018-09-08T11:09:43.572Z,-76
2018-09-08T11:10:43.693Z,-76
2018-09-08T11:11:43.578Z,-76
2018-09-08T11:12:43.719Z,-76
2018-09-08T11:13:43.578Z,-76
2018-09-08T11:14:43.697Z,-76
2018-09-08T11:15:43.629Z,-76
2018-09-08T11:16:43.698Z,-76
2018-09-08T11:17:43.606Z,-76
2018-09-08T11:18:43.775Z,-76
2018-09-08T11:19:43.583Z,-76
2018-09-08T11:20:43.703Z,-76
2018-09-08T11:21:43.586Z,-76
2018-09-08T11:22:43.733Z,-76
2018-09-08T11:23:43.587Z,-76
2018-09-08T11:24:43.710Z,-76
2018-09-08T11:25:43.595Z,-76
2018-09-08T11:26:43.705Z,-76
2018-09-08T11:27:43.615Z,-76
2018-09-08T11:28:43.711Z,-76
2018-09-08T11:29:43.595Z,-76
2018-09-08T11:30:43.887Z,-76
2018-09-08T11:31:43.596Z,-76
2018-09-08T11:32:43.741Z,-76
2018-09-08T11:33:43.598Z,-76
2018-09-08T11:34:44.367Z,-76
2018-09-08T11:35:43.601Z,-76
2018-09-08T11:36:43.721Z,-76
2018-09-08T11:37:43.624Z,-76
2018-09-08T11:38:43.798Z,-76
2018-09-08T11:39:43.607Z,-76
2018-09-08T11:40:43.991Z,-76
2018-09-08T11:41:43.705Z,-76
2018-09-08T11:42:44.393Z,-76
2018-09-08T11:43:43.677Z,-76
2018-09-08T11:44:43.834Z,-76
2018-09-08T11:45:43.607Z,-76
2018-09-08T11:46:43.731Z,-76
2018-09-08T11:47:43.610Z,-76
2018-09-08T11:48:43.765Z,-76
2018-09-08T11:49:43.653Z,-76
2018-09-08T11:50:43.734Z,-76
2018-09-08T11:51:43.613Z,-76
2018-09-08T11:52:43.733Z,-76
2018-09-08T11:53:43.639Z,-76
2018-09-08T11:54:43.736Z,-76
2018-09-08T11:55:43.706Z,-76
2018-09-08T11:56:43.739Z,-77
2018-09-08T11:57:43.619Z,-76
2018-09-08T11:58:43.761Z,-76
2018-09-08T11:59:43.714Z,-76
2018-09-08T12:00:43.738Z,-76
2018-09-08T12:01:43.623Z,-76
2018-09-08T12:02:43.741Z,-75
2018-09-08T12:03:43.649Z,-75
2018-09-08T12:04:43.747Z,-75
2018-09-08T12:06:43.912Z,-75
2018-09-08T12:07:43.628Z,-75
2018-09-08T12:08:45.048Z,-76
2018-09-08T12:09:43.631Z,-75
2018-09-08T12:10:43.919Z,-75
2018-09-08T12:11:43.635Z,-75
2018-09-08T12:12:43.753Z,-75
2018-09-08T12:13:43.665Z,-75
2018-09-08T12:14:43.754Z,-75
2018-09-08T12:15:43.651Z,-75
2018-09-08T12:16:43.757Z,-75
2018-09-08T12:17:43.638Z,-75
2018-09-08T12:18:43.782Z,-75
2018-09-08T12:19:43.639Z,-75
2018-09-08T12:20:43.762Z,-75
2018-09-08T12:21:43.643Z,-75
2018-09-08T12:22:43.756Z,-76
2018-09-08T12:23:43.643Z,-76
2018-09-08T12:24:43.786Z,-76
2018-09-08T12:25:43.646Z,-76
2018-09-08T12:26:43.764Z,-76
2018-09-08T12:27:43.646Z,-76
2018-09-08T12:28:43.765Z,-76
2018-09-08T12:29:43.673Z,-76
2018-09-08T12:30:44.071Z,-76
2018-09-08T12:31:43.652Z,-76
2018-09-08T12:32:43.774Z,-76
2018-09-08T12:33:43.653Z,-76
2018-09-08T12:34:43.795Z,-76
2018-09-08T12:35:43.655Z,-76
2018-09-08T12:36:43.775Z,-76
2018-09-08T12:37:43.658Z,-76
2018-09-08T12:38:43.915Z,-76
2018-09-08T12:39:43.684Z,-76
2018-09-08T12:40:43.777Z,-76
2018-09-08T12:41:43.663Z,-76
2018-09-08T12:42:43.782Z,-76
2018-09-08T12:43:43.662Z,-76
2018-09-08T12:44:46.668Z,-76
2018-09-08T12:45:43.672Z,-76
2018-09-08T12:46:43.782Z,-76
2018-09-08T12:47:43.666Z,-76
2018-09-08T12:48:43.791Z,-76
2018-09-08T12:49:43.694Z,-76
2018-09-08T12:50:43.791Z,-76
2018-09-08T12:51:43.671Z,-76
2018-09-08T12:52:43.794Z,-76
2018-09-08T12:53:43.674Z,-76
2018-09-08T12:54:43.817Z,-76
2018-09-08T12:55:43.673Z,-76
2018-09-08T12:56:43.799Z,-76
2018-09-08T12:57:43.677Z,-76
2018-09-08T12:58:43.797Z,-76
2018-09-08T12:59:43.704Z,-76
2018-09-08T13:00:43.795Z,-75
2018-09-08T13:01:43.680Z,-75
2018-09-08T13:02:43.796Z,-75
2018-09-08T13:03:43.680Z,-75
2018-09-08T13:04:43.823Z,-75
2018-09-08T13:05:43.682Z,-75
2018-09-08T13:06:43.806Z,-75
2018-09-08T13:07:43.745Z,-75
2018-09-08T13:08:43.806Z,-75
2018-09-08T13:09:43.711Z,-76
2018-09-08T13:10:43.808Z,-75
2018-09-08T13:11:43.690Z,-75
2018-09-08T13:12:43.813Z,-75
2018-09-08T13:13:43.692Z,-75
2018-09-08T13:14:43.851Z,-75
2018-09-08T13:15:43.693Z,-75
2018-09-08T13:16:43.809Z,-75
2018-09-08T13:17:43.692Z,-75
2018-09-08T13:18:43.811Z,-75
2018-09-08T13:19:43.696Z,-75
2018-09-08T13:20:43.856Z,-75
2018-09-08T13:21:44.982Z,-76
2018-09-08T13:22:43.823Z,-75
2018-09-08T13:23:43.701Z,-75
2018-09-08T13:24:43.826Z,-75
2018-09-08T13:25:43.725Z,-76
2018-09-08T13:26:43.825Z,-75
2018-09-08T13:27:43.704Z,-75
2018-09-08T13:28:43.827Z,-75
2018-09-08T13:29:43.705Z,-75
2018-09-08T13:30:43.849Z,-75
2018-09-08T13:31:43.711Z,-75
2018-09-08T13:32:43.827Z,-75
2018-09-08T13:33:43.722Z,-76
2018-09-08T13:34:43.826Z,-75
2018-09-08T13:35:43.736Z,-76
2018-09-08T13:36:43.835Z,-75
2018-09-08T13:37:43.720Z,-75
2018-09-08T13:38:43.834Z,-76
2018-09-08T13:39:43.871Z,-76
2018-09-08T13:40:43.862Z,-76
2018-09-08T13:41:43.718Z,-76
2018-09-08T13:42:43.843Z,-76
2018-09-08T13:43:43.779Z,-75
2018-09-08T13:44:43.845Z,-76
2018-09-08T13:45:43.744Z,-76
2018-09-08T13:46:43.845Z,-75
2018-09-08T13:47:43.726Z,-76
2018-09-08T13:48:43.843Z,-75